createdAt,value
2023-12-15T00:02:07.927Z,6.20
2023-12-15T00:04:35.089Z,4.90
2023-12-15T00:07:02.582Z,5.40
2023-12-15T00:09:29.795Z,5.87
2023-12-15T00:11:56.904Z,5.33
2023-12-15T00:14:24.243Z,4.87
2023-12-15T00:16:53.760Z,5.20
2023-12-15T00:19:22.776Z,6.27
2023-12-15T00:21:49.860Z,5.87
2023-12-15T00:24:17.442Z,7.17
2023-12-15T00:26:44.633Z,7.77
2023-12-15T00:29:11.815Z,7.50
2023-12-15T00:31:41.082Z,7.40
2023-12-15T00:34:08.252Z,6.97
2023-12-15T00:36:37.700Z,7.37
2023-12-15T00:39:09.437Z,8.07
2023-12-15T00:41:36.618Z,6.57
2023-12-15T00:44:06.938Z,7.83
2023-12-15T00:46:34.265Z,7.60
2023-12-15T00:49:01.274Z,7.30
2023-12-15T00:51:31.230Z,7.80
2023-12-15T00:53:58.143Z,6.60
2023-12-15T00:56:27.247Z,8.10
2023-12-15T00:58:54.197Z,7.77
2023-12-15T01:01:21.129Z,7.10
2023-12-15T01:03:48.115Z,7.23
2023-12-15T01:06:15.189Z,8.17
2023-12-15T01:08:42.404Z,6.10
2023-12-15T01:11:09.833Z,7.70
2023-12-15T01:13:36.764Z,7.23
2023-12-15T01:16:06.399Z,6.97
2023-12-15T01:18:33.769Z,6.17
2023-12-15T01:21:00.797Z,6.53
2023-12-15T01:23:27.782Z,7.23
2023-12-15T01:25:54.638Z,8.07
2023-12-15T01:28:21.764Z,8.70
2023-12-15T01:30:50.989Z,6.83
2023-12-15T01:33:20.203Z,8.90
2023-12-15T01:35:47.112Z,5.63
2023-12-15T01:38:13.968Z,6.00
2023-12-15T01:40:40.985Z,5.37
2023-12-15T01:43:07.838Z,5.10
2023-12-15T01:45:34.714Z,4.70
2023-12-15T01:48:03.997Z,5.10
2023-12-15T01:50:31.149Z,4.67
2023-12-15T01:53:02.392Z,5.10
2023-12-15T01:55:29.279Z,5.23
2023-12-15T01:57:56.153Z,4.10
2023-12-15T02:00:25.458Z,5.93
2023-12-15T02:02:52.344Z,5.47
2023-12-15T02:05:19.515Z,6.30
2023-12-15T02:07:46.784Z,4.83
2023-12-15T02:10:13.711Z,5.10
2023-12-15T02:12:40.543Z,5.13
2023-12-15T02:15:10.528Z,5.77
2023-12-15T02:17:38.578Z,4.80
2023-12-15T02:20:07.075Z,3.90
2023-12-15T02:22:33.960Z,5.03
2023-12-15T02:25:00.866Z,4.97
2023-12-15T02:27:27.895Z,5.43
2023-12-15T02:29:54.766Z,4.60
2023-12-15T02:32:21.843Z,4.80
2023-12-15T02:34:48.946Z,4.50
2023-12-15T02:37:15.993Z,5.27
2023-12-15T02:39:42.817Z,5.67
2023-12-15T02:42:11.982Z,5.03
2023-12-15T02:44:41.116Z,4.97
2023-12-15T02:47:08.030Z,4.67
2023-12-15T02:49:41.445Z,5.40
2023-12-15T02:52:09.027Z,6.17
2023-12-15T02:54:38.143Z,4.70
2023-12-15T02:57:05.151Z,6.33
2023-12-15T02:59:32.095Z,6.93
2023-12-15T03:01:58.995Z,5.83
2023-12-15T03:04:25.876Z,5.23
2023-12-15T03:06:52.784Z,6.60
2023-12-15T03:09:19.639Z,4.40
2023-12-15T03:11:49.040Z,5.03
2023-12-15T03:14:16.014Z,6.50
2023-12-15T03:16:42.883Z,6.40
2023-12-15T03:19:09.844Z,6.00
2023-12-15T03:21:36.737Z,6.40
2023-12-15T03:24:05.818Z,6.90
2023-12-15T03:26:33.028Z,5.70
2023-12-15T03:29:00.266Z,5.23
2023-12-15T03:31:27.232Z,6.80
2023-12-15T03:33:54.158Z,6.60
2023-12-15T03:36:21.073Z,8.43
2023-12-15T03:38:49.232Z,7.27
2023-12-15T03:41:16.285Z,6.00
2023-12-15T03:43:43.118Z,7.07
2023-12-15T03:46:09.962Z,6.50
2023-12-15T03:48:37.021Z,6.50
2023-12-15T03:51:04.189Z,9.07
2023-12-15T03:53:31.135Z,8.17
2023-12-15T03:55:57.996Z,8.03
2023-12-15T03:58:24.923Z,6.87
2023-12-15T04:00:53.376Z,8.10
2023-12-15T04:03:20.361Z,6.77
2023-12-15T04:05:49.768Z,7.27
2023-12-15T04:08:16.850Z,6.40
2023-12-15T04:10:48.154Z,8.63
2023-12-15T04:13:15.060Z,7.00
2023-12-15T04:15:44.153Z,7.70
2023-12-15T04:18:11.231Z,7.30
2023-12-15T04:20:38.292Z,7.17
2023-12-15T04:23:05.184Z,7.00
2023-12-15T04:25:32.920Z,6.53
2023-12-15T04:28:00.073Z,7.60
2023-12-15T04:30:27.006Z,5.83
2023-12-15T04:32:53.952Z,6.57
2023-12-15T04:35:21.513Z,7.17
2023-12-15T04:37:48.509Z,7.33
2023-12-15T04:40:15.630Z,7.37
2023-12-15T04:42:42.686Z,7.40
2023-12-15T04:45:12.121Z,7.73
2023-12-15T04:47:39.597Z,8.83
2023-12-15T04:50:07.660Z,8.43
2023-12-15T04:52:34.968Z,10.07
2023-12-15T04:55:01.878Z,8.47
2023-12-15T04:57:28.791Z,8.97
2023-12-15T04:59:55.657Z,6.80
2023-12-15T05:02:22.625Z,9.03
2023-12-15T05:04:49.588Z,8.90
2023-12-15T05:07:16.407Z,8.37
2023-12-15T05:09:43.323Z,6.97
2023-12-15T05:12:10.183Z,9.17
2023-12-15T05:14:37.822Z,7.70
2023-12-15T05:17:05.117Z,6.23
2023-12-15T05:19:34.666Z,6.50
2023-12-15T05:22:01.644Z,6.43
2023-12-15T05:24:28.534Z,6.20
2023-12-15T05:26:55.463Z,5.77
2023-12-15T05:29:23.187Z,6.20
2023-12-15T05:31:52.431Z,6.20
2023-12-15T05:34:31.587Z,5.20
2023-12-15T05:36:58.475Z,5.60
2023-12-15T05:39:27.546Z,4.10
2023-12-15T05:41:54.456Z,4.80
2023-12-15T05:44:21.386Z,5.33
2023-12-15T05:46:48.369Z,3.80
2023-12-15T05:49:15.701Z,3.60
2023-12-15T05:51:51.096Z,3.67
2023-12-15T05:54:18.035Z,3.47
2023-12-15T05:56:44.858Z,3.50
2023-12-15T05:59:14.005Z,3.47
2023-12-15T06:01:40.884Z,3.83
2023-12-15T06:04:07.784Z,4.00
2023-12-15T06:06:34.746Z,4.20
2023-12-15T06:09:03.906Z,4.63
2023-12-15T06:11:33.135Z,4.17
2023-12-15T06:14:00.234Z,5.53
2023-12-15T06:16:27.207Z,5.30
2023-12-15T06:18:54.116Z,4.23
2023-12-15T06:21:25.490Z,6.53
2023-12-15T06:23:52.873Z,4.57
2023-12-15T06:26:21.659Z,4.63
2023-12-15T06:28:51.853Z,5.00
2023-12-15T06:31:18.759Z,4.60
2023-12-15T06:33:45.798Z,4.10
2023-12-15T06:36:13.497Z,4.80
2023-12-15T06:38:44.436Z,4.60
2023-12-15T06:41:11.964Z,4.30
2023-12-15T06:43:46.773Z,5.80
2023-12-15T06:46:17.003Z,5.10
2023-12-15T06:48:44.227Z,5.53
2023-12-15T06:51:11.236Z,5.40
2023-12-15T06:53:41.970Z,5.93
2023-12-15T06:56:09.286Z,5.00
2023-12-15T06:58:36.322Z,5.63
2023-12-15T07:01:03.682Z,6.07
2023-12-15T07:03:30.665Z,5.73
2023-12-15T07:05:57.751Z,6.30
2023-12-15T07:08:24.755Z,6.53
2023-12-15T07:11:06.604Z,5.30
2023-12-15T07:13:36.443Z,5.00
2023-12-15T07:16:05.142Z,5.93
2023-12-15T07:18:34.159Z,5.73
2023-12-15T07:21:01.214Z,7.47
2023-12-15T07:23:28.179Z,7.90
2023-12-15T07:25:55.247Z,6.00
2023-12-15T07:28:26.506Z,7.03
2023-12-15T07:30:56.030Z,8.30
2023-12-15T07:33:23.120Z,7.43
2023-12-15T07:35:52.330Z,8.23
2023-12-15T07:38:19.297Z,8.50
2023-12-15T07:40:48.697Z,8.00
2023-12-15T07:43:15.557Z,7.50
2023-12-15T07:45:42.600Z,6.87
2023-12-15T07:48:12.381Z,8.40
2023-12-15T07:50:40.787Z,8.17
2023-12-15T07:53:07.805Z,8.63
2023-12-15T07:55:34.745Z,10.97
2023-12-15T07:58:03.754Z,9.47
2023-12-15T08:00:32.943Z,7.70
2023-12-15T08:03:02.212Z,7.13
2023-12-15T08:05:29.132Z,8.77
2023-12-15T08:07:58.361Z,8.00
2023-12-15T08:10:30.750Z,6.63
2023-12-15T08:13:04.983Z,6.70
2023-12-15T08:15:38.892Z,6.27
2023-12-15T08:18:05.845Z,9.47
2023-12-15T08:20:37.339Z,8.60
2023-12-15T08:23:09.608Z,8.87
2023-12-15T08:25:41.454Z,8.10
2023-12-15T08:28:11.302Z,9.03
2023-12-15T08:30:39.048Z,8.13
2023-12-15T08:33:08.194Z,8.37
2023-12-15T08:35:35.172Z,9.97
2023-12-15T08:38:06.936Z,8.30
2023-12-15T08:40:38.793Z,7.87
2023-12-15T08:43:08.280Z,8.73
2023-12-15T08:45:39.822Z,8.30
2023-12-15T08:48:06.762Z,12.60
2023-12-15T08:50:36.339Z,10.10
2023-12-15T08:53:07.706Z,8.87
2023-12-15T08:55:37.138Z,10.33
2023-12-15T08:58:06.187Z,11.97
2023-12-15T09:00:37.349Z,10.97
2023-12-15T09:03:04.972Z,7.43
2023-12-15T09:05:57.174Z,8.17
2023-12-15T09:08:21.663Z,7.03
2023-12-15T09:10:52.019Z,8.93
2023-12-15T09:13:19.629Z,8.57
2023-12-15T09:15:48.996Z,9.47
2023-12-15T09:18:18.546Z,8.93
2023-12-15T09:20:51.230Z,8.87
2023-12-15T09:23:18.319Z,9.47
2023-12-15T09:25:51.223Z,7.00
2023-12-15T09:28:23.452Z,8.90
2023-12-15T09:30:57.646Z,10.00
2023-12-15T09:33:24.645Z,7.50
2023-12-15T09:35:54.900Z,12.90
2023-12-15T09:38:23.989Z,9.50
2023-12-15T09:40:53.136Z,8.93
2023-12-15T09:43:22.271Z,6.87
2023-12-15T09:45:50.048Z,10.00
2023-12-15T09:48:18.684Z,9.33
2023-12-15T09:50:55.999Z,9.50
2023-12-15T09:53:24.242Z,7.83
2023-12-15T09:55:55.110Z,8.23
2023-12-15T09:58:24.577Z,7.47
2023-12-15T10:00:51.766Z,9.73
2023-12-15T10:03:21.110Z,8.20
2023-12-15T10:05:48.144Z,9.50
2023-12-15T10:08:17.395Z,10.60
2023-12-15T10:10:46.662Z,9.30
2023-12-15T10:13:13.505Z,7.83
2023-12-15T10:15:42.528Z,8.40
2023-12-15T10:18:09.809Z,7.20
2023-12-15T10:20:36.881Z,8.67
2023-12-15T10:23:08.355Z,8.90
2023-12-15T10:25:49.060Z,6.63
2023-12-15T10:28:21.842Z,7.33
2023-12-15T10:30:52.750Z,7.50
2023-12-15T10:33:22.368Z,9.80
2023-12-15T10:35:49.576Z,5.77
2023-12-15T10:38:19.155Z,6.93
2023-12-15T10:40:49.497Z,6.97
2023-12-15T10:43:22.543Z,6.90
2023-12-15T10:45:52.336Z,7.43
2023-12-15T10:48:19.996Z,6.17
2023-12-15T10:50:50.339Z,5.20
2023-12-15T10:53:17.589Z,7.17
2023-12-15T10:55:47.571Z,6.83
2023-12-15T10:58:15.002Z,5.90
2023-12-15T11:00:44.424Z,7.00
2023-12-15T11:03:12.190Z,11.33
2023-12-15T11:05:41.828Z,9.10
2023-12-15T11:08:10.358Z,7.03
2023-12-15T11:10:39.690Z,8.13
2023-12-15T11:13:44.941Z,7.93
2023-12-15T11:16:14.968Z,7.07
2023-12-15T11:18:42.958Z,7.17
2023-12-15T11:21:15.596Z,10.33
2023-12-15T11:24:00.172Z,6.13
2023-12-15T11:26:31.863Z,8.03
2023-12-15T11:29:14.273Z,7.20
2023-12-15T11:31:45.559Z,7.30
2023-12-15T11:34:39.080Z,6.20
2023-12-15T11:37:06.511Z,6.87
2023-12-15T11:39:43.359Z,6.53
2023-12-15T11:42:13.701Z,5.87
2023-12-15T11:44:40.654Z,7.03
2023-12-15T11:47:11.135Z,6.80
2023-12-15T11:49:44.105Z,6.30
2023-12-15T11:52:14.239Z,8.87
2023-12-15T11:54:41.732Z,7.23
2023-12-15T11:57:15.921Z,6.20
2023-12-15T11:59:46.326Z,9.40
2023-12-15T12:02:17.973Z,8.33
2023-12-15T12:04:48.227Z,10.80
2023-12-15T12:07:15.777Z,8.67
2023-12-15T12:09:46.086Z,7.20
2023-12-15T12:12:13.416Z,6.80
2023-12-15T12:14:43.709Z,5.93
2023-12-15T12:17:12.169Z,6.60
2023-12-15T12:19:44.948Z,6.30
2023-12-15T12:22:13.629Z,6.20
2023-12-15T12:24:40.773Z,6.70
2023-12-15T12:27:10.332Z,6.87
2023-12-15T12:29:40.715Z,6.53
2023-12-15T12:32:08.130Z,6.80
2023-12-15T12:34:35.267Z,6.40
2023-12-15T12:37:02.292Z,7.30
2023-12-15T12:39:29.216Z,6.30
2023-12-15T12:41:58.396Z,5.50
2023-12-15T12:44:30.240Z,5.23
2023-12-15T12:46:59.777Z,5.77
2023-12-15T12:49:29.114Z,5.90
2023-12-15T12:51:58.008Z,6.10
2023-12-15T12:54:27.121Z,6.17
2023-12-15T12:57:00.245Z,5.47
2023-12-15T12:59:30.769Z,7.73
2023-12-15T13:02:07.377Z,5.63
2023-12-15T13:04:44.812Z,6.00
2023-12-15T13:07:11.751Z,6.47
2023-12-15T13:09:40.764Z,6.43
2023-12-15T13:12:07.696Z,11.00
2023-12-15T13:14:34.594Z,6.23
2023-12-15T13:17:03.520Z,5.93
2023-12-15T13:19:32.579Z,5.93
2023-12-15T13:21:59.507Z,10.77
2023-12-15T13:24:26.452Z,8.10
2023-12-15T13:26:53.309Z,6.77
2023-12-15T13:29:30.146Z,5.40
2023-12-15T13:32:00.487Z,7.70
2023-12-15T13:34:29.941Z,6.60
2023-12-15T13:36:58.950Z,7.50
2023-12-15T13:39:25.875Z,6.00
2023-12-15T13:41:52.932Z,8.30
2023-12-15T13:44:24.792Z,6.70
2023-12-15T13:46:54.437Z,6.07
2023-12-15T13:49:23.667Z,6.57
2023-12-15T13:51:55.165Z,5.60
2023-12-15T13:54:26.833Z,7.50
2023-12-15T13:56:59.449Z,7.60
2023-12-15T13:59:34.720Z,7.10
2023-12-15T14:02:01.973Z,6.43
2023-12-15T14:04:30.988Z,6.53
2023-12-15T14:07:01.475Z,9.33
2023-12-15T14:09:30.997Z,11.10
2023-12-15T14:12:00.257Z,7.27
2023-12-15T14:14:29.305Z,6.30
2023-12-15T14:16:56.849Z,6.30
2023-12-15T14:19:23.954Z,7.33
2023-12-15T14:21:53.313Z,7.00
2023-12-15T14:24:24.709Z,7.27
2023-12-15T14:27:02.237Z,7.70
2023-12-15T14:29:36.333Z,7.37
2023-12-15T14:32:06.492Z,6.77
2023-12-15T14:34:33.494Z,6.10
2023-12-15T14:37:02.935Z,6.97
2023-12-15T14:39:29.736Z,8.40
2023-12-15T14:42:01.614Z,8.13
2023-12-15T14:44:31.004Z,6.50
2023-12-15T14:47:04.280Z,6.93
2023-12-15T14:49:32.211Z,6.80
2023-12-15T14:52:01.548Z,6.73
2023-12-15T14:54:30.741Z,6.73
2023-12-15T14:57:00.346Z,6.90
2023-12-15T14:59:29.347Z,7.43
2023-12-15T15:01:58.397Z,7.33
2023-12-15T15:04:27.808Z,6.60
2023-12-15T15:06:54.843Z,5.60
2023-12-15T15:09:21.739Z,5.17
2023-12-15T15:11:51.493Z,5.37
2023-12-15T15:14:18.451Z,6.07
2023-12-15T15:16:47.532Z,7.63
2023-12-15T15:19:14.564Z,5.77
2023-12-15T15:21:43.684Z,6.17
2023-12-15T15:24:13.318Z,6.83
2023-12-15T15:26:45.134Z,7.93
2023-12-15T15:29:14.764Z,9.07
2023-12-15T15:31:42.093Z,5.70
2023-12-15T15:34:11.541Z,5.70
2023-12-15T15:36:39.323Z,6.80
2023-12-15T15:39:08.437Z,6.77
2023-12-15T15:41:39.805Z,5.80
2023-12-15T15:44:11.371Z,6.00
2023-12-15T15:46:50.561Z,7.10
2023-12-15T15:49:22.304Z,7.63
2023-12-15T15:51:51.961Z,5.80
2023-12-15T15:54:22.794Z,6.33
2023-12-15T15:56:49.704Z,5.63
2023-12-15T15:59:18.930Z,6.67
2023-12-15T16:01:47.950Z,8.90
2023-12-15T16:04:14.922Z,8.93
2023-12-15T16:06:42.129Z,7.30
2023-12-15T16:09:09.163Z,6.83
2023-12-15T16:11:38.677Z,5.40
2023-12-15T16:14:11.511Z,7.73
2023-12-15T16:16:42.333Z,7.30
2023-12-15T16:19:10.689Z,10.13
2023-12-15T16:21:44.704Z,11.73
2023-12-15T16:24:19.213Z,5.87
2023-12-15T16:26:49.680Z,10.50
2023-12-15T16:29:21.275Z,7.57
2023-12-15T16:31:51.355Z,8.07
2023-12-15T16:34:20.480Z,7.77
2023-12-15T16:36:47.418Z,7.57
2023-12-15T16:39:15.302Z,9.00
2023-12-15T16:41:44.891Z,6.37
2023-12-15T16:44:13.850Z,6.37
2023-12-15T16:46:42.827Z,7.00
2023-12-15T16:49:12.217Z,5.70
2023-12-15T16:51:43.792Z,5.90
2023-12-15T16:54:10.679Z,6.73
2023-12-15T16:56:42.102Z,7.60
2023-12-15T16:59:11.720Z,7.80
2023-12-15T17:01:41.228Z,8.00
2023-12-15T17:04:10.532Z,7.37
2023-12-15T17:06:39.936Z,7.23
2023-12-15T17:09:09.493Z,8.13
2023-12-15T17:11:37.800Z,7.03
2023-12-15T17:14:06.996Z,7.30
2023-12-15T17:16:37.112Z,8.50
2023-12-15T17:19:04.602Z,9.20
2023-12-15T17:21:33.965Z,7.37
2023-12-15T17:24:08.270Z,8.30
2023-12-15T17:26:42.293Z,7.10
2023-12-15T17:29:14.896Z,8.40
2023-12-15T17:31:48.746Z,7.70
2023-12-15T17:34:15.805Z,7.50
2023-12-15T17:36:47.298Z,7.97
2023-12-15T17:39:14.276Z,8.07
2023-12-15T17:41:41.642Z,6.93
2023-12-15T17:44:10.849Z,10.00
2023-12-15T17:46:39.961Z,8.80
2023-12-15T17:49:10.836Z,8.87
2023-12-15T17:51:40.353Z,10.40
2023-12-15T17:54:09.660Z,9.27
2023-12-15T17:56:42.067Z,8.40
2023-12-15T17:59:13.623Z,14.53
2023-12-15T18:01:45.905Z,6.70
2023-12-15T18:04:13.803Z,6.80
2023-12-15T18:06:44.210Z,6.93
2023-12-15T18:09:15.114Z,8.60
2023-12-15T18:11:47.102Z,7.90
2023-12-15T18:14:16.693Z,7.00
2023-12-15T18:16:43.761Z,7.73
2023-12-15T18:19:13.164Z,7.90
2023-12-15T18:21:42.968Z,8.23
2023-12-15T18:24:12.436Z,7.30
2023-12-15T18:26:42.809Z,8.83
2023-12-15T18:29:11.965Z,10.50
2023-12-15T18:31:41.392Z,8.33
2023-12-15T18:34:12.995Z,8.57
2023-12-15T18:36:39.918Z,8.70
2023-12-15T18:39:09.715Z,7.90
2023-12-15T18:41:39.916Z,10.40
2023-12-15T18:44:11.374Z,9.13
2023-12-15T18:46:39.601Z,7.60
2023-12-15T18:49:09.300Z,6.83
2023-12-15T18:51:36.343Z,11.23
2023-12-15T18:54:03.259Z,6.10
2023-12-15T18:56:32.677Z,6.47
2023-12-15T18:59:01.900Z,8.23
2023-12-15T19:01:35.588Z,9.53
2023-12-15T19:04:05.084Z,7.47
2023-12-15T19:06:34.476Z,8.20
2023-12-15T19:09:06.325Z,7.63
2023-12-15T19:11:36.139Z,9.97
2023-12-15T19:14:07.930Z,10.80
2023-12-15T19:16:42.308Z,7.83
2023-12-15T19:19:12.937Z,8.10
2023-12-15T19:21:39.895Z,10.37
2023-12-15T19:24:09.402Z,7.40
2023-12-15T19:26:38.545Z,9.43
2023-12-15T19:29:07.826Z,7.73
2023-12-15T19:31:41.031Z,6.97
2023-12-15T19:34:10.611Z,5.97
2023-12-15T19:36:42.964Z,7.13
2023-12-15T19:39:15.245Z,6.70
2023-12-15T19:41:44.400Z,8.10
2023-12-15T19:44:11.436Z,8.00
2023-12-15T19:46:39.049Z,8.60
2023-12-15T19:49:11.307Z,9.77
2023-12-15T19:51:38.344Z,7.33
2023-12-15T19:54:15.661Z,6.87
2023-12-15T19:56:48.561Z,7.13
2023-12-15T19:59:20.463Z,9.30
2023-12-15T20:01:48.055Z,8.13
2023-12-15T20:04:17.536Z,8.00
2023-12-15T20:06:47.813Z,7.33
2023-12-15T20:09:16.036Z,7.90
2023-12-15T20:11:42.955Z,8.47
2023-12-15T20:14:14.155Z,8.53
2023-12-15T20:16:42.042Z,8.93
2023-12-15T20:19:12.657Z,9.97
2023-12-15T20:21:41.930Z,9.87
2023-12-15T20:24:13.622Z,7.20
2023-12-15T20:26:45.565Z,7.10
2023-12-15T20:29:15.342Z,8.93
2023-12-15T20:31:47.407Z,7.47
2023-12-15T20:34:17.875Z,7.40
2023-12-15T20:36:45.215Z,8.37
2023-12-15T20:39:17.552Z,9.70
2023-12-15T20:41:46.953Z,8.90
2023-12-15T20:44:15.863Z,7.83
2023-12-15T20:46:46.444Z,10.33
2023-12-15T20:49:17.983Z,9.37
2023-12-15T20:51:53.640Z,10.80
2023-12-15T20:54:28.989Z,7.80
2023-12-15T20:57:03.150Z,11.43
2023-12-15T20:59:30.031Z,9.80
2023-12-15T21:01:59.305Z,9.17
2023-12-15T21:04:29.597Z,7.53
2023-12-15T21:06:57.245Z,8.23
2023-12-15T21:09:24.134Z,8.17
2023-12-15T21:11:58.094Z,9.43
2023-12-15T21:14:27.352Z,7.30
2023-12-15T21:16:57.783Z,7.60
2023-12-15T21:19:26.980Z,6.20
2023-12-15T21:21:56.436Z,5.37
2023-12-15T21:24:25.534Z,6.60
2023-12-15T21:26:54.746Z,5.90
2023-12-15T21:29:24.024Z,6.00
2023-12-15T21:31:57.595Z,6.67
2023-12-15T21:34:29.879Z,9.13
2023-12-15T21:36:59.086Z,6.60
2023-12-15T21:39:33.251Z,7.13
2023-12-15T21:42:07.642Z,7.70
2023-12-15T21:44:38.876Z,7.47
2023-12-15T21:47:10.344Z,7.80
2023-12-15T21:49:43.306Z,10.60
2023-12-15T21:52:13.670Z,8.47
2023-12-15T21:54:46.078Z,10.00
2023-12-15T21:57:17.734Z,7.50
2023-12-15T21:59:44.519Z,7.27
2023-12-15T22:02:16.856Z,8.10
2023-12-15T22:04:50.960Z,7.20
2023-12-15T22:07:23.513Z,8.20
2023-12-15T22:09:50.776Z,11.33
2023-12-15T22:12:20.217Z,8.67
2023-12-15T22:14:49.490Z,6.87
2023-12-15T22:17:20.896Z,7.87
2023-12-15T22:19:52.441Z,9.50
2023-12-15T22:22:19.377Z,10.10
2023-12-15T22:24:48.759Z,9.60
2023-12-15T22:27:18.245Z,7.10
2023-12-15T22:29:49.638Z,6.60
2023-12-15T22:32:20.759Z,7.83
2023-12-15T22:34:50.274Z,8.00
2023-12-15T22:37:24.265Z,8.23
2023-12-15T22:39:53.698Z,8.80
2023-12-15T22:42:27.847Z,9.00
2023-12-15T22:44:56.928Z,8.03
2023-12-15T22:47:26.085Z,11.30
2023-12-15T22:49:56.531Z,9.70
2023-12-15T22:52:28.469Z,8.67
2023-12-15T22:54:57.586Z,9.10
2023-12-15T22:57:29.179Z,11.87
2023-12-15T22:59:58.356Z,8.97
2023-12-15T23:02:29.770Z,11.40
2023-12-15T23:05:01.311Z,10.10
2023-12-15T23:07:35.147Z,8.27
2023-12-15T23:10:06.338Z,10.97
2023-12-15T23:12:33.402Z,9.97
2023-12-15T23:15:07.501Z,10.80
2023-12-15T23:17:42.104Z,11.40
2023-12-15T23:20:09.828Z,10.83
2023-12-15T23:22:39.125Z,10.67
2023-12-15T23:25:10.060Z,9.63
2023-12-15T23:27:37.221Z,9.30
2023-12-15T23:30:09.083Z,10.20
2023-12-15T23:32:38.271Z,9.60
2023-12-15T23:35:11.289Z,8.87
2023-12-15T23:37:41.465Z,9.70
2023-12-15T23:40:13.694Z,9.40
2023-12-15T23:42:47.275Z,9.87
2023-12-15T23:45:16.593Z,8.97
2023-12-15T23:47:43.795Z,10.90
2023-12-15T23:50:15.620Z,9.40
2023-12-15T23:52:42.611Z,12.73
2023-12-15T23:55:11.943Z,11.83
2023-12-15T23:57:41.564Z,10.97
